createdAt,value
2023-05-10T03:43:39.448Z,2.72
2023-05-10T03:46:47.296Z,2.62
2023-05-10T03:49:50.077Z,3.85
2023-05-10T03:52:54.738Z,3.72
2023-05-10T03:55:57.463Z,3.65
2023-05-10T03:59:00.311Z,3.90
2023-05-10T04:02:02.723Z,3.17
2023-05-10T04:05:06.247Z,3.00
2023-05-10T04:08:08.759Z,5.18
2023-05-10T04:11:13.185Z,3.08
2023-05-10T04:14:15.514Z,2.92
2023-05-10T04:17:18.067Z,2.80
2023-05-10T04:20:20.662Z,3.08
2023-05-10T04:23:23.436Z,3.37
2023-05-10T04:26:26.539Z,3.50
2023-05-10T04:29:29.163Z,3.58
2023-05-10T04:32:32.386Z,3.95
2023-05-10T04:35:36.005Z,3.35
2023-05-10T04:38:38.354Z,3.42
2023-05-10T04:41:41.032Z,3.27
2023-05-10T04:44:43.526Z,3.15
2023-05-10T04:47:46.122Z,3.53
2023-05-10T04:50:48.448Z,4.47
2023-05-10T04:53:57.816Z,3.55
2023-05-10T04:57:08.129Z,3.15
2023-05-10T05:00:11.639Z,3.33
2023-05-10T05:03:14.094Z,2.97
2023-05-10T05:06:16.747Z,3.33
2023-05-10T05:09:19.094Z,3.53
2023-05-10T05:12:21.697Z,3.53
2023-05-10T05:15:24.356Z,3.72
2023-05-10T05:18:27.011Z,3.42
2023-05-10T05:21:30.048Z,3.50
2023-05-10T05:24:37.372Z,3.50
2023-05-10T05:27:39.788Z,3.40
2023-05-10T05:30:42.581Z,3.90
2023-05-10T05:33:45.585Z,3.17
2023-05-10T05:39:51.148Z,3.80
2023-05-10T05:42:53.843Z,4.70
2023-05-10T05:46:01.199Z,3.60
2023-05-10T05:49:06.555Z,3.08
2023-05-10T05:52:08.989Z,3.97
2023-05-10T05:55:12.831Z,3.47
2023-05-10T05:58:15.302Z,3.20
2023-05-10T06:01:17.969Z,3.57
2023-05-10T06:04:20.848Z,3.87
2023-05-10T06:07:23.256Z,3.58
2023-05-10T06:10:26.476Z,3.50
2023-05-10T06:13:33.706Z,3.92
2023-05-10T06:16:50.768Z,3.95
2023-05-10T06:19:56.977Z,3.30
2023-05-10T06:22:59.790Z,3.75
2023-05-10T06:26:02.310Z,3.87
2023-05-10T06:29:04.963Z,3.72
2023-05-10T06:32:07.304Z,2.72
2023-05-10T06:35:10.123Z,3.27
2023-05-10T06:38:12.518Z,3.35
2023-05-10T06:41:15.219Z,3.77
2023-05-10T06:44:17.655Z,3.92
2023-05-10T06:47:20.555Z,4.93
2023-05-10T06:50:22.956Z,3.12
2023-05-10T06:53:25.590Z,3.53
2023-05-10T06:56:32.044Z,3.45
2023-05-10T06:59:34.756Z,3.05
2023-05-10T07:02:37.325Z,3.30
2023-05-10T07:05:40.055Z,4.40
2023-05-10T07:08:42.373Z,3.50
2023-05-10T07:11:45.275Z,3.00
2023-05-10T07:14:47.736Z,3.85
2023-05-10T07:17:50.431Z,3.97
2023-05-10T07:20:53.079Z,3.70
2023-05-10T07:23:55.833Z,4.40
2023-05-10T07:26:58.160Z,3.28
2023-05-10T07:30:01.482Z,3.57
2023-05-10T07:33:04.447Z,3.67
2023-05-10T07:36:07.434Z,3.45
2023-05-10T07:39:09.955Z,3.00
2023-05-10T07:45:15.822Z,2.58
2023-05-10T07:48:18.591Z,3.78
2023-05-10T07:51:20.955Z,3.45
2023-05-10T07:54:23.680Z,3.30
2023-05-10T07:57:26.164Z,3.07
2023-05-10T08:00:28.812Z,2.90
2023-05-10T08:03:31.447Z,2.47
2023-05-10T08:06:33.889Z,2.95
2023-05-10T08:09:36.929Z,2.60
2023-05-10T08:12:42.380Z,3.05
2023-05-10T08:15:45.117Z,2.80
2023-05-10T08:18:48.386Z,4.63
2023-05-10T08:24:53.219Z,3.60
2023-05-10T08:27:55.842Z,3.12
2023-05-10T08:30:58.194Z,2.65
2023-05-10T08:34:01.313Z,3.17
2023-05-10T08:37:04.381Z,3.03
2023-05-10T08:43:13.864Z,2.37
2023-05-10T08:46:18.939Z,3.12
2023-05-10T08:49:22.708Z,3.75
2023-05-10T08:52:27.395Z,3.67
2023-05-10T08:55:30.035Z,3.20
2023-05-10T08:58:32.904Z,2.95
2023-05-10T09:01:37.580Z,2.67
2023-05-10T09:04:40.480Z,2.62
2023-05-10T09:07:43.087Z,3.47
2023-05-10T09:10:48.414Z,4.35
2023-05-10T09:13:52.836Z,3.45
2023-05-10T09:16:56.432Z,3.03
2023-05-10T09:20:05.371Z,3.20
2023-05-10T09:23:08.687Z,2.80
2023-05-10T09:26:11.119Z,2.85
2023-05-10T09:29:16.000Z,3.42
2023-05-10T09:32:19.749Z,3.05
2023-05-10T09:35:28.685Z,3.20
2023-05-10T09:38:46.384Z,2.72
2023-05-10T09:41:49.428Z,2.75
2023-05-10T09:44:51.803Z,2.87
2023-05-10T09:47:55.299Z,3.95
2023-05-10T09:54:17.740Z,2.50
2023-05-10T09:57:25.379Z,2.92
2023-05-10T10:00:29.227Z,2.67
2023-05-10T10:03:32.125Z,2.67
2023-05-10T10:06:38.897Z,3.30
2023-05-10T10:09:42.029Z,3.03
2023-05-10T10:12:45.522Z,2.47
2023-05-10T10:15:51.872Z,2.65
2023-05-10T10:18:54.686Z,2.62
2023-05-10T10:21:57.301Z,2.37
2023-05-10T10:25:00.040Z,2.35
2023-05-10T10:28:18.275Z,2.72
2023-05-10T10:31:48.115Z,2.25
2023-05-10T10:34:51.195Z,2.80
2023-05-10T10:37:53.745Z,2.35
2023-05-10T10:41:03.804Z,2.78
2023-05-10T10:44:27.493Z,2.47
2023-05-10T10:47:34.304Z,2.03
2023-05-10T10:50:45.805Z,2.42
2023-05-10T10:53:49.080Z,2.05
2023-05-10T10:57:15.155Z,1.80
2023-05-10T11:00:28.462Z,1.98
2023-05-10T11:03:30.920Z,2.80
2023-05-10T11:06:36.525Z,2.33
2023-05-10T11:09:41.659Z,2.10
2023-05-10T11:13:05.293Z,1.58
2023-05-10T11:16:24.855Z,1.60
2023-05-10T11:19:30.524Z,1.87
2023-05-10T11:22:51.727Z,2.00
2023-05-10T11:25:55.381Z,3.28
2023-05-10T11:28:59.518Z,2.10
2023-05-10T11:32:09.105Z,1.60
2023-05-10T11:35:12.807Z,1.62
2023-05-10T11:38:15.817Z,1.62
2023-05-10T11:41:22.517Z,1.60
2023-05-10T11:44:30.514Z,1.80
2023-05-10T11:47:33.092Z,1.95
2023-05-10T11:50:35.940Z,1.70
2023-05-10T11:53:39.074Z,2.00
2023-05-10T11:56:42.303Z,1.33
2023-05-10T11:59:44.679Z,1.80
2023-05-10T12:02:47.943Z,1.50
2023-05-10T12:05:50.839Z,1.62
2023-05-10T12:08:56.316Z,1.87
2023-05-10T12:11:59.414Z,1.90
2023-05-10T12:15:04.208Z,1.50
2023-05-10T12:18:09.265Z,1.50
2023-05-10T12:21:13.141Z,1.30
2023-05-10T12:24:18.852Z,2.10
2023-05-10T12:27:21.596Z,1.90
2023-05-10T12:30:26.656Z,1.52
2023-05-10T12:33:37.349Z,1.75
2023-05-10T12:36:40.110Z,1.58
2023-05-10T12:39:44.631Z,2.00
2023-05-10T12:42:47.530Z,2.00
2023-05-10T12:45:50.066Z,1.73
2023-05-10T12:49:07.535Z,2.28
2023-05-10T12:52:10.625Z,1.85
2023-05-10T12:55:13.386Z,1.70
2023-05-10T12:58:27.823Z,2.07
2023-05-10T13:01:37.487Z,1.42
2023-05-10T13:04:40.805Z,1.30
2023-05-10T13:07:44.795Z,1.62
2023-05-10T13:10:47.164Z,1.23
2023-05-10T13:13:49.677Z,1.27
2023-05-10T13:16:52.005Z,1.43
2023-05-10T13:19:54.572Z,1.70
2023-05-10T13:22:57.039Z,1.63
2023-05-10T13:25:59.766Z,0.90
2023-05-10T13:29:02.200Z,1.50
2023-05-10T13:32:05.173Z,1.30
2023-05-10T13:35:09.085Z,1.87
2023-05-10T13:38:13.214Z,1.40
2023-05-10T13:41:18.009Z,1.45
2023-05-10T13:44:21.568Z,2.42
2023-05-10T13:50:26.671Z,1.40
2023-05-10T13:53:29.071Z,1.37
2023-05-10T13:56:31.710Z,1.50
2023-05-10T13:59:34.214Z,1.08
2023-05-10T14:02:37.074Z,1.73
2023-05-10T14:05:39.684Z,1.30
2023-05-10T14:08:42.096Z,1.20
2023-05-10T14:11:45.896Z,1.62
2023-05-10T14:14:48.169Z,2.58
2023-05-10T14:17:50.816Z,1.20
2023-05-10T14:20:53.200Z,1.55
2023-05-10T14:23:56.663Z,1.45
2023-05-10T14:26:59.698Z,1.30
2023-05-10T14:30:02.318Z,1.25
2023-05-10T14:33:05.924Z,1.30
2023-05-10T14:36:09.419Z,1.27
2023-05-10T14:39:13.733Z,1.27
2023-05-10T14:42:16.386Z,1.40
2023-05-10T14:45:19.247Z,1.47
2023-05-10T14:51:24.420Z,1.40
2023-05-10T14:54:27.161Z,1.55
2023-05-10T14:57:30.616Z,1.00
2023-05-10T15:00:33.245Z,1.12
2023-05-10T15:03:36.421Z,1.83
2023-05-10T15:06:39.642Z,1.60
2023-05-10T15:09:42.045Z,1.33
2023-05-10T15:12:44.706Z,3.47
2023-05-10T15:15:47.125Z,1.10
2023-05-10T15:18:49.798Z,1.27
2023-05-10T15:21:52.250Z,1.37
2023-05-10T15:24:55.019Z,1.23
2023-05-10T15:27:57.272Z,1.00
2023-05-10T15:31:01.392Z,1.20
2023-05-10T15:34:03.791Z,1.17
2023-05-10T15:37:06.327Z,1.23
2023-05-10T15:40:09.258Z,1.15
2023-05-10T15:43:11.957Z,1.15
2023-05-10T15:46:14.422Z,1.20
2023-05-10T15:49:17.074Z,1.20
2023-05-10T15:52:21.000Z,1.15
2023-05-10T15:55:23.764Z,1.50
2023-05-10T16:41:42.820Z,1.60
2023-05-10T16:44:45.873Z,1.42
2023-05-10T16:47:48.213Z,1.33
2023-05-10T16:50:50.913Z,1.20
2023-05-10T16:53:53.615Z,1.60
2023-05-10T16:56:56.185Z,1.60
2023-05-10T16:59:58.817Z,1.83
2023-05-10T17:03:01.632Z,1.90
2023-05-10T17:06:05.929Z,1.73
2023-05-10T17:09:08.542Z,1.90
2023-05-10T17:12:11.284Z,1.77
2023-05-10T17:15:16.410Z,1.65
2023-05-10T17:18:19.542Z,1.95
